sensor_id;sensor_type;location;lat;lon;timestamp;P1;durP1;ratioP1;P2;durP2;ratioP2
65328;SDS011;51941;52.210;5.158;2023-04-01T00:01:25;14.35;;;4.43;;
65328;SDS011;51941;52.210;5.158;2023-04-01T00:03:51;18.85;;;4.45;;
65328;SDS011;51941;52.210;5.158;2023-04-01T00:06:19;17.42;;;4.97;;
65328;SDS011;51941;52.210;5.158;2023-04-01T00:08:46;13.55;;;4.93;;
65328;SDS011;51941;52.210;5.158;2023-04-01T00:11:13;16.20;;;5.85;;
65328;SDS011;51941;52.210;5.158;2023-04-01T00:13:40;15.90;;;5.53;;
65328;SDS011;51941;52.210;5.158;2023-04-01T00:16:08;12.88;;;5.07;;
65328;SDS011;51941;52.210;5.158;2023-04-01T00:18:35;18.98;;;7.88;;
65328;SDS011;51941;52.210;5.158;2023-04-01T00:21:02;16.05;;;5.72;;
65328;SDS011;51941;52.210;5.158;2023-04-01T00:23:28;12.88;;;4.55;;
65328;SDS011;51941;52.210;5.158;2023-04-01T00:25:55;10.63;;;4.38;;
65328;SDS011;51941;52.210;5.158;2023-04-01T00:28:22;10.38;;;4.47;;
65328;SDS011;51941;52.210;5.158;2023-04-01T00:30:48;15.00;;;5.60;;
65328;SDS011;51941;52.210;5.158;2023-04-01T00:33:16;16.60;;;5.35;;
65328;SDS011;51941;52.210;5.158;2023-04-01T00:35:43;9.68;;;5.10;;
65328;SDS011;51941;52.210;5.158;2023-04-01T00:38:11;14.82;;;5.50;;
65328;SDS011;51941;52.210;5.158;2023-04-01T00:40:38;17.45;;;7.22;;
65328;SDS011;51941;52.210;5.158;2023-04-01T00:43:09;20.63;;;8.57;;
65328;SDS011;51941;52.210;5.158;2023-04-01T00:45:39;14.10;;;6.00;;
65328;SDS011;51941;52.210;5.158;2023-04-01T00:48:08;18.25;;;7.70;;
65328;SDS011;51941;52.210;5.158;2023-04-01T00:53:07;22.38;;;7.60;;
65328;SDS011;51941;52.210;5.158;2023-04-01T00:55:35;15.90;;;6.28;;
65328;SDS011;51941;52.210;5.158;2023-04-01T00:58:06;17.00;;;7.80;;
65328;SDS011;51941;52.210;5.158;2023-04-01T01:00:37;15.43;;;6.55;;
65328;SDS011;51941;52.210;5.158;2023-04-01T01:03:04;24.58;;;8.70;;
65328;SDS011;51941;52.210;5.158;2023-04-01T01:05:35;12.90;;;5.53;;
65328;SDS011;51941;52.210;5.158;2023-04-01T01:08:13;12.00;;;5.03;;
65328;SDS011;51941;52.210;5.158;2023-04-01T01:10:47;13.07;;;6.07;;
65328;SDS011;51941;52.210;5.158;2023-04-01T01:13:17;11.70;;;5.97;;
65328;SDS011;51941;52.210;5.158;2023-04-01T01:15:49;10.60;;;4.53;;
65328;SDS011;51941;52.210;5.158;2023-04-01T01:18:22;11.13;;;5.72;;
65328;SDS011;51941;52.210;5.158;2023-04-01T01:24:09;10.75;;;4.38;;
65328;SDS011;51941;52.210;5.158;2023-04-01T01:26:51;7.63;;;3.70;;
65328;SDS011;51941;52.210;5.158;2023-04-01T01:32:19;6.43;;;3.17;;
65328;SDS011;51941;52.210;5.158;2023-04-01T01:35:06;6.03;;;2.70;;
65328;SDS011;51941;52.210;5.158;2023-04-01T01:37:42;7.75;;;3.33;;
65328;SDS011;51941;52.210;5.158;2023-04-01T01:40:15;5.93;;;3.10;;
65328;SDS011;51941;52.210;5.158;2023-04-01T01:42:44;7.00;;;3.35;;
65328;SDS011;51941;52.210;5.158;2023-04-01T01:45:14;6.45;;;2.88;;
65328;SDS011;51941;52.210;5.158;2023-04-01T01:47:45;5.28;;;2.83;;
65328;SDS011;51941;52.210;5.158;2023-04-01T01:50:16;7.43;;;3.00;;
65328;SDS011;51941;52.210;5.158;2023-04-01T01:52:44;6.32;;;2.65;;
65328;SDS011;51941;52.210;5.158;2023-04-01T01:55:26;4.28;;;2.53;;
65328;SDS011;51941;52.210;5.158;2023-04-01T01:57:56;6.97;;;2.80;;
65328;SDS011;51941;52.210;5.158;2023-04-01T02:00:27;5.65;;;2.92;;
65328;SDS011;51941;52.210;5.158;2023-04-01T02:02:55;4.80;;;2.72;;
65328;SDS011;51941;52.210;5.158;2023-04-01T02:05:25;4.40;;;2.47;;
65328;SDS011;51941;52.210;5.158;2023-04-01T02:08:01;3.50;;;1.83;;
65328;SDS011;51941;52.210;5.158;2023-04-01T02:10:31;6.93;;;2.72;;
65328;SDS011;51941;52.210;5.158;2023-04-01T02:13:03;6.45;;;2.65;;
65328;SDS011;51941;52.210;5.158;2023-04-01T02:15:34;9.60;;;3.15;;
65328;SDS011;51941;52.210;5.158;2023-04-01T02:18:07;6.13;;;3.15;;
65328;SDS011;51941;52.210;5.158;2023-04-01T02:20:35;7.53;;;3.40;;
65328;SDS011;51941;52.210;5.158;2023-04-01T02:23:03;4.85;;;2.83;;
65328;SDS011;51941;52.210;5.158;2023-04-01T02:25:33;7.93;;;3.15;;
65328;SDS011;51941;52.210;5.158;2023-04-01T02:28:02;6.25;;;2.35;;
65328;SDS011;51941;52.210;5.158;2023-04-01T02:30:32;5.18;;;3.15;;
65328;SDS011;51941;52.210;5.158;2023-04-01T02:35:30;12.68;;;4.47;;
65328;SDS011;51941;52.210;5.158;2023-04-01T02:38:00;5.00;;;3.50;;
65328;SDS011;51941;52.210;5.158;2023-04-01T02:40:28;7.50;;;4.30;;
65328;SDS011;51941;52.210;5.158;2023-04-01T02:42:54;7.30;;;4.00;;
65328;SDS011;51941;52.210;5.158;2023-04-01T02:45:21;9.73;;;4.90;;
65328;SDS011;51941;52.210;5.158;2023-04-01T02:47:48;7.82;;;4.10;;
65328;SDS011;51941;52.210;5.158;2023-04-01T02:50:15;9.63;;;4.50;;
65328;SDS011;51941;52.210;5.158;2023-04-01T02:52:42;8.25;;;5.25;;
65328;SDS011;51941;52.210;5.158;2023-04-01T02:55:10;12.95;;;6.90;;
65328;SDS011;51941;52.210;5.158;2023-04-01T02:57:37;18.30;;;8.25;;
65328;SDS011;51941;52.210;5.158;2023-04-01T03:00:04;11.23;;;7.50;;
65328;SDS011;51941;52.210;5.158;2023-04-01T03:02:36;21.48;;;10.23;;
65328;SDS011;51941;52.210;5.158;2023-04-01T03:05:04;20.63;;;10.27;;
65328;SDS011;51941;52.210;5.158;2023-04-01T03:07:32;23.13;;;11.32;;
65328;SDS011;51941;52.210;5.158;2023-04-01T03:09:59;24.25;;;11.73;;
65328;SDS011;51941;52.210;5.158;2023-04-01T03:12:27;31.85;;;13.98;;
65328;SDS011;51941;52.210;5.158;2023-04-01T03:14:54;26.00;;;12.10;;
65328;SDS011;51941;52.210;5.158;2023-04-01T03:17:22;25.08;;;12.35;;
65328;SDS011;51941;52.210;5.158;2023-04-01T03:19:48;26.75;;;12.00;;
65328;SDS011;51941;52.210;5.158;2023-04-01T03:22:15;29.80;;;12.45;;
65328;SDS011;51941;52.210;5.158;2023-04-01T03:24:44;23.20;;;12.88;;
65328;SDS011;51941;52.210;5.158;2023-04-01T03:27:11;16.45;;;9.40;;
65328;SDS011;51941;52.210;5.158;2023-04-01T03:29:39;19.45;;;10.60;;
65328;SDS011;51941;52.210;5.158;2023-04-01T03:32:07;17.10;;;10.67;;
65328;SDS011;51941;52.210;5.158;2023-04-01T03:34:33;18.25;;;11.10;;
65328;SDS011;51941;52.210;5.158;2023-04-01T03:37:00;17.17;;;10.15;;
65328;SDS011;51941;52.210;5.158;2023-04-01T03:39:27;13.75;;;9.45;;
65328;SDS011;51941;52.210;5.158;2023-04-01T03:41:54;18.20;;;10.05;;
65328;SDS011;51941;52.210;5.158;2023-04-01T03:44:20;14.80;;;8.77;;
65328;SDS011;51941;52.210;5.158;2023-04-01T03:46:52;19.27;;;10.85;;
65328;SDS011;51941;52.210;5.158;2023-04-01T03:49:19;21.73;;;11.80;;
65328;SDS011;51941;52.210;5.158;2023-04-01T03:51:45;20.73;;;10.15;;
65328;SDS011;51941;52.210;5.158;2023-04-01T03:54:12;24.60;;;11.05;;
65328;SDS011;51941;52.210;5.158;2023-04-01T03:56:39;12.10;;;7.15;;
65328;SDS011;51941;52.210;5.158;2023-04-01T03:59:06;12.82;;;7.25;;
65328;SDS011;51941;52.210;5.158;2023-04-01T04:01:33;11.63;;;6.28;;
65328;SDS011;51941;52.210;5.158;2023-04-01T04:04:02;10.25;;;6.10;;
65328;SDS011;51941;52.210;5.158;2023-04-01T04:06:28;8.30;;;5.47;;
65328;SDS011;51941;52.210;5.158;2023-04-01T04:08:55;9.27;;;6.20;;
65328;SDS011;51941;52.210;5.158;2023-04-01T04:11:22;5.72;;;4.45;;
65328;SDS011;51941;52.210;5.158;2023-04-01T04:13:51;6.90;;;4.13;;
65328;SDS011;51941;52.210;5.158;2023-04-01T04:16:19;5.95;;;4.07;;
65328;SDS011;51941;52.210;5.158;2023-04-01T04:18:52;7.53;;;4.63;;
65328;SDS011;51941;52.210;5.158;2023-04-01T04:21:20;5.88;;;3.63;;
65328;SDS011;51941;52.210;5.158;2023-04-01T04:23:46;5.03;;;3.70;;
65328;SDS011;51941;52.210;5.158;2023-04-01T04:26:15;5.47;;;4.25;;
65328;SDS011;51941;52.210;5.158;2023-04-01T04:28:51;5.88;;;4.68;;
65328;SDS011;51941;52.210;5.158;2023-04-01T04:31:18;7.43;;;5.15;;
65328;SDS011;51941;52.210;5.158;2023-04-01T04:33:46;7.20;;;5.60;;
65328;SDS011;51941;52.210;5.158;2023-04-01T04:36:14;5.53;;;4.80;;
65328;SDS011;51941;52.210;5.158;2023-04-01T04:38:43;6.80;;;5.32;;
65328;SDS011;51941;52.210;5.158;2023-04-01T04:41:12;5.82;;;4.93;;
65328;SDS011;51941;52.210;5.158;2023-04-01T04:43:48;7.72;;;6.18;;
65328;SDS011;51941;52.210;5.158;2023-04-01T04:46:16;8.52;;;6.18;;
65328;SDS011;51941;52.210;5.158;2023-04-01T04:48:44;8.77;;;5.53;;
65328;SDS011;51941;52.210;5.158;2023-04-01T04:51:12;8.43;;;5.97;;
65328;SDS011;51941;52.210;5.158;2023-04-01T04:53:40;7.50;;;6.13;;
65328;SDS011;51941;52.210;5.158;2023-04-01T04:56:09;8.85;;;6.03;;
65328;SDS011;51941;52.210;5.158;2023-04-01T04:58:51;8.45;;;5.93;;
65328;SDS011;51941;52.210;5.158;2023-04-01T05:01:22;6.30;;;5.53;;
65328;SDS011;51941;52.210;5.158;2023-04-01T05:03:49;9.88;;;6.00;;
65328;SDS011;51941;52.210;5.158;2023-04-01T05:06:17;8.10;;;5.93;;
65328;SDS011;51941;52.210;5.158;2023-04-01T05:08:44;10.65;;;7.47;;
65328;SDS011;51941;52.210;5.158;2023-04-01T05:11:14;7.20;;;6.28;;
65328;SDS011;51941;52.210;5.158;2023-04-01T05:13:42;10.88;;;7.07;;
65328;SDS011;51941;52.210;5.158;2023-04-01T05:16:11;9.60;;;6.90;;
65328;SDS011;51941;52.210;5.158;2023-04-01T05:18:39;7.47;;;5.85;;
65328;SDS011;51941;52.210;5.158;2023-04-01T05:21:06;9.68;;;6.88;;
65328;SDS011;51941;52.210;5.158;2023-04-01T05:23:35;8.95;;;7.10;;
65328;SDS011;51941;52.210;5.158;2023-04-01T05:26:03;9.30;;;7.57;;
65328;SDS011;51941;52.210;5.158;2023-04-01T05:28:33;8.80;;;6.73;;
65328;SDS011;51941;52.210;5.158;2023-04-01T05:31:00;7.95;;;6.45;;
65328;SDS011;51941;52.210;5.158;2023-04-01T05:33:33;8.88;;;7.28;;
65328;SDS011;51941;52.210;5.158;2023-04-01T05:36:07;8.90;;;7.18;;
65328;SDS011;51941;52.210;5.158;2023-04-01T05:38:35;9.43;;;6.80;;
65328;SDS011;51941;52.210;5.158;2023-04-01T05:41:04;8.48;;;6.70;;
65328;SDS011;51941;52.210;5.158;2023-04-01T05:43:36;10.48;;;7.10;;
65328;SDS011;51941;52.210;5.158;2023-04-01T05:46:23;11.02;;;7.13;;
65328;SDS011;51941;52.210;5.158;2023-04-01T05:49:10;10.02;;;7.57;;
65328;SDS011;51941;52.210;5.158;2023-04-01T05:51:37;11.55;;;6.90;;
65328;SDS011;51941;52.210;5.158;2023-04-01T05:54:04;11.05;;;7.85;;
65328;SDS011;51941;52.210;5.158;2023-04-01T05:56:31;8.35;;;6.55;;
65328;SDS011;51941;52.210;5.158;2023-04-01T05:59:00;11.05;;;7.03;;
65328;SDS011;51941;52.210;5.158;2023-04-01T06:01:27;11.13;;;7.75;;
65328;SDS011;51941;52.210;5.158;2023-04-01T06:03:53;14.38;;;6.43;;
65328;SDS011;51941;52.210;5.158;2023-04-01T06:06:23;8.55;;;6.53;;
65328;SDS011;51941;52.210;5.158;2023-04-01T06:08:54;9.63;;;6.82;;
65328;SDS011;51941;52.210;5.158;2023-04-01T06:11:26;9.75;;;6.55;;
65328;SDS011;51941;52.210;5.158;2023-04-01T06:14:09;9.68;;;6.88;;
65328;SDS011;51941;52.210;5.158;2023-04-01T06:16:47;8.73;;;6.22;;
65328;SDS011;51941;52.210;5.158;2023-04-01T06:19:26;7.78;;;5.82;;
65328;SDS011;51941;52.210;5.158;2023-04-01T06:22:18;8.00;;;5.40;;
65328;SDS011;51941;52.210;5.158;2023-04-01T06:27:50;8.75;;;6.38;;
65328;SDS011;51941;52.210;5.158;2023-04-01T06:30:34;6.97;;;5.25;;
65328;SDS011;51941;52.210;5.158;2023-04-01T06:33:12;8.80;;;5.72;;
65328;SDS011;51941;52.210;5.158;2023-04-01T06:35:54;7.78;;;6.07;;
65328;SDS011;51941;52.210;5.158;2023-04-01T06:38:47;8.52;;;6.40;;
65328;SDS011;51941;52.210;5.158;2023-04-01T06:41:33;7.18;;;5.20;;
65328;SDS011;51941;52.210;5.158;2023-04-01T06:44:19;6.95;;;4.60;;
65328;SDS011;51941;52.210;5.158;2023-04-01T06:47:14;6.90;;;4.43;;
65328;SDS011;51941;52.210;5.158;2023-04-01T06:50:15;5.07;;;3.60;;
65328;SDS011;51941;52.210;5.158;2023-04-01T06:53:10;7.65;;;4.82;;
65328;SDS011;51941;52.210;5.158;2023-04-01T06:55:55;7.22;;;5.53;;
65328;SDS011;51941;52.210;5.158;2023-04-01T06:58:37;8.52;;;5.63;;
65328;SDS011;51941;52.210;5.158;2023-04-01T07:01:10;9.55;;;6.90;;
65328;SDS011;51941;52.210;5.158;2023-04-01T07:03:45;9.65;;;6.00;;
65328;SDS011;51941;52.210;5.158;2023-04-01T07:06:22;9.35;;;6.45;;
65328;SDS011;51941;52.210;5.158;2023-04-01T07:08:55;10.95;;;6.38;;
65328;SDS011;51941;52.210;5.158;2023-04-01T07:11:37;9.45;;;5.95;;
65328;SDS011;51941;52.210;5.158;2023-04-01T07:14:39;9.60;;;6.43;;
65328;SDS011;51941;52.210;5.158;2023-04-01T07:17:08;8.10;;;5.90;;
65328;SDS011;51941;52.210;5.158;2023-04-01T07:19:44;11.02;;;6.72;;
65328;SDS011;51941;52.210;5.158;2023-04-01T07:22:17;9.45;;;5.78;;
65328;SDS011;51941;52.210;5.158;2023-04-01T07:25:28;12.00;;;7.57;;
65328;SDS011;51941;52.210;5.158;2023-04-01T07:28:17;10.45;;;6.72;;
65328;SDS011;51941;52.210;5.158;2023-04-01T07:30:52;14.93;;;7.65;;
65328;SDS011;51941;52.210;5.158;2023-04-01T07:33:30;11.98;;;6.95;;
65328;SDS011;51941;52.210;5.158;2023-04-01T07:36:07;12.43;;;7.10;;
65328;SDS011;51941;52.210;5.158;2023-04-01T07:38:39;12.98;;;7.43;;
65328;SDS011;51941;52.210;5.158;2023-04-01T07:41:38;12.65;;;7.57;;
65328;SDS011;51941;52.210;5.158;2023-04-01T07:44:13;14.10;;;8.20;;
65328;SDS011;51941;52.210;5.158;2023-04-01T07:46:53;12.35;;;7.30;;
65328;SDS011;51941;52.210;5.158;2023-04-01T07:49:30;16.75;;;7.97;;
65328;SDS011;51941;52.210;5.158;2023-04-01T07:52:08;13.20;;;7.68;;
65328;SDS011;51941;52.210;5.158;2023-04-01T07:54:44;14.15;;;8.07;;
65328;SDS011;51941;52.210;5.158;2023-04-01T07:57:16;12.13;;;7.25;;
65328;SDS011;51941;52.210;5.158;2023-04-01T07:59:55;14.00;;;9.23;;
65328;SDS011;51941;52.210;5.158;2023-04-01T08:02:47;14.10;;;8.70;;
65328;SDS011;51941;52.210;5.158;2023-04-01T08:05:29;11.25;;;7.60;;
65328;SDS011;51941;52.210;5.158;2023-04-01T08:08:06;14.05;;;8.55;;
65328;SDS011;51941;52.210;5.158;2023-04-01T08:11:21;15.27;;;9.25;;
65328;SDS011;51941;52.210;5.158;2023-04-01T08:14:18;14.20;;;8.02;;
65328;SDS011;51941;52.210;5.158;2023-04-01T08:17:19;14.98;;;9.00;;
65328;SDS011;51941;52.210;5.158;2023-04-01T08:19:56;11.07;;;7.35;;
65328;SDS011;51941;52.210;5.158;2023-04-01T08:22:32;14.98;;;9.00;;
65328;SDS011;51941;52.210;5.158;2023-04-01T08:25:13;10.85;;;7.35;;
65328;SDS011;51941;52.210;5.158;2023-04-01T08:27:44;14.65;;;8.63;;
65328;SDS011;51941;52.210;5.158;2023-04-01T08:32:46;14.07;;;7.57;;
65328;SDS011;51941;52.210;5.158;2023-04-01T08:35:19;11.60;;;8.02;;
65328;SDS011;51941;52.210;5.158;2023-04-01T08:37:54;12.98;;;8.02;;
65328;SDS011;51941;52.210;5.158;2023-04-01T08:40:33;12.38;;;8.07;;
65328;SDS011;51941;52.210;5.158;2023-04-01T08:43:12;12.43;;;7.63;;
65328;SDS011;51941;52.210;5.158;2023-04-01T08:45:48;11.13;;;7.45;;
65328;SDS011;51941;52.210;5.158;2023-04-01T08:48:34;13.82;;;7.63;;
65328;SDS011;51941;52.210;5.158;2023-04-01T08:51:16;12.07;;;7.13;;
65328;SDS011;51941;52.210;5.158;2023-04-01T08:54:14;8.63;;;5.60;;
65328;SDS011;51941;52.210;5.158;2023-04-01T08:57:10;11.93;;;6.43;;
65328;SDS011;51941;52.210;5.158;2023-04-01T09:00:05;7.90;;;5.13;;
65328;SDS011;51941;52.210;5.158;2023-04-01T09:03:12;10.00;;;5.53;;
65328;SDS011;51941;52.210;5.158;2023-04-01T09:06:11;8.43;;;5.78;;
65328;SDS011;51941;52.210;5.158;2023-04-01T09:18:32;10.18;;;5.72;;
65328;SDS011;51941;52.210;5.158;2023-04-01T09:21:27;9.77;;;5.65;;
65328;SDS011;51941;52.210;5.158;2023-04-01T09:24:19;8.20;;;5.72;;
65328;SDS011;51941;52.210;5.158;2023-04-01T09:27:05;7.45;;;5.13;;
65328;SDS011;51941;52.210;5.158;2023-04-01T09:29:51;8.68;;;4.95;;
65328;SDS011;51941;52.210;5.158;2023-04-01T09:32:37;5.30;;;4.60;;
65328;SDS011;51941;52.210;5.158;2023-04-01T09:35:21;9.45;;;6.13;;
65328;SDS011;51941;52.210;5.158;2023-04-01T09:37:52;9.10;;;5.85;;
65328;SDS011;51941;52.210;5.158;2023-04-01T09:40:31;8.02;;;6.00;;
65328;SDS011;51941;52.210;5.158;2023-04-01T09:43:16;8.85;;;5.85;;
65328;SDS011;51941;52.210;5.158;2023-04-01T09:48:50;10.27;;;5.40;;
65328;SDS011;51941;52.210;5.158;2023-04-01T09:51:37;7.85;;;4.72;;
65328;SDS011;51941;52.210;5.158;2023-04-01T09:54:21;6.18;;;4.35;;
65328;SDS011;51941;52.210;5.158;2023-04-01T09:57:07;9.02;;;4.45;;
65328;SDS011;51941;52.210;5.158;2023-04-01T10:00:02;6.53;;;4.78;;
65328;SDS011;51941;52.210;5.158;2023-04-01T10:03:09;7.10;;;4.72;;
65328;SDS011;51941;52.210;5.158;2023-04-01T10:06:05;8.68;;;5.55;;
65328;SDS011;51941;52.210;5.158;2023-04-01T10:21:28;7.70;;;5.90;;
65328;SDS011;51941;52.210;5.158;2023-04-01T10:27:21;9.38;;;7.22;;
65328;SDS011;51941;52.210;5.158;2023-04-01T10:39:52;8.55;;;6.10;;
65328;SDS011;51941;52.210;5.158;2023-04-01T10:43:26;7.28;;;6.07;;
65328;SDS011;51941;52.210;5.158;2023-04-01T10:46:42;5.10;;;4.47;;
65328;SDS011;51941;52.210;5.158;2023-04-01T10:53:02;5.90;;;4.82;;
65328;SDS011;51941;52.210;5.158;2023-04-01T11:06:45;6.13;;;4.88;;
65328;SDS011;51941;52.210;5.158;2023-04-01T11:09:43;6.47;;;4.45;;
65328;SDS011;51941;52.210;5.158;2023-04-01T11:15:58;7.60;;;5.22;;
65328;SDS011;51941;52.210;5.158;2023-04-01T11:21:50;4.85;;;4.40;;
65328;SDS011;51941;52.210;5.158;2023-04-01T11:28:24;6.05;;;4.70;;
65328;SDS011;51941;52.210;5.158;2023-04-01T11:31:20;6.65;;;5.15;;
65328;SDS011;51941;52.210;5.158;2023-04-01T11:33:57;5.82;;;5.07;;
65328;SDS011;51941;52.210;5.158;2023-04-01T11:36:42;5.88;;;4.93;;
65328;SDS011;51941;52.210;5.158;2023-04-01T11:39:24;9.07;;;5.78;;
65328;SDS011;51941;52.210;5.158;2023-04-01T11:42:40;6.03;;;4.75;;
65328;SDS011;51941;52.210;5.158;2023-04-01T11:45:35;6.22;;;5.63;;
65328;SDS011;51941;52.210;5.158;2023-04-01T11:48:24;7.38;;;6.50;;
65328;SDS011;51941;52.210;5.158;2023-04-01T11:51:24;6.82;;;6.05;;
65328;SDS011;51941;52.210;5.158;2023-04-01T11:54:10;10.80;;;8.02;;
65328;SDS011;51941;52.210;5.158;2023-04-01T11:56:51;8.90;;;7.00;;
65328;SDS011;51941;52.210;5.158;2023-04-01T12:02:25;9.85;;;7.43;;
65328;SDS011;51941;52.210;5.158;2023-04-01T12:05:19;10.77;;;7.78;;
65328;SDS011;51941;52.210;5.158;2023-04-01T12:08:08;11.02;;;8.05;;
65328;SDS011;51941;52.210;5.158;2023-04-01T12:10:44;8.98;;;7.68;;
65328;SDS011;51941;52.210;5.158;2023-04-01T12:13:23;10.25;;;8.65;;
65328;SDS011;51941;52.210;5.158;2023-04-01T12:16:08;12.15;;;8.65;;
65328;SDS011;51941;52.210;5.158;2023-04-01T12:18:46;12.63;;;8.95;;
65328;SDS011;51941;52.210;5.158;2023-04-01T12:21:22;13.57;;;9.75;;
65328;SDS011;51941;52.210;5.158;2023-04-01T12:24:10;12.98;;;8.52;;
65328;SDS011;51941;52.210;5.158;2023-04-01T12:30:06;12.95;;;8.23;;
65328;SDS011;51941;52.210;5.158;2023-04-01T12:33:00;14.27;;;9.38;;
65328;SDS011;51941;52.210;5.158;2023-04-01T12:35:45;14.20;;;9.63;;
65328;SDS011;51941;52.210;5.158;2023-04-01T12:38:25;16.50;;;10.52;;
65328;SDS011;51941;52.210;5.158;2023-04-01T12:41:08;10.98;;;8.98;;
65328;SDS011;51941;52.210;5.158;2023-04-01T12:43:52;11.20;;;7.68;;
65328;SDS011;51941;52.210;5.158;2023-04-01T12:46:48;11.88;;;8.52;;
65328;SDS011;51941;52.210;5.158;2023-04-01T12:49:45;9.80;;;7.18;;
65328;SDS011;51941;52.210;5.158;2023-04-01T12:52:25;10.30;;;7.32;;
65328;SDS011;51941;52.210;5.158;2023-04-01T12:55:13;9.57;;;6.80;;
65328;SDS011;51941;52.210;5.158;2023-04-01T13:00:55;8.27;;;6.47;;
65328;SDS011;51941;52.210;5.158;2023-04-01T13:03:34;7.45;;;6.15;;
65328;SDS011;51941;52.210;5.158;2023-04-01T13:06:42;8.02;;;5.95;;
65328;SDS011;51941;52.210;5.158;2023-04-01T13:09:20;6.78;;;6.10;;
65328;SDS011;51941;52.210;5.158;2023-04-01T13:12:00;7.97;;;5.95;;
65328;SDS011;51941;52.210;5.158;2023-04-01T13:14:50;6.32;;;5.65;;
65328;SDS011;51941;52.210;5.158;2023-04-01T13:17:32;6.53;;;5.00;;
65328;SDS011;51941;52.210;5.158;2023-04-01T13:20:06;6.60;;;5.72;;
65328;SDS011;51941;52.210;5.158;2023-04-01T13:22:51;5.85;;;5.18;;
65328;SDS011;51941;52.210;5.158;2023-04-01T13:25:31;6.13;;;5.07;;
65328;SDS011;51941;52.210;5.158;2023-04-01T13:28:06;5.28;;;4.78;;
65328;SDS011;51941;52.210;5.158;2023-04-01T13:30:39;4.90;;;4.10;;
65328;SDS011;51941;52.210;5.158;2023-04-01T13:33:13;5.80;;;4.78;;
65328;SDS011;51941;52.210;5.158;2023-04-01T13:35:48;6.43;;;4.82;;
65328;SDS011;51941;52.210;5.158;2023-04-01T13:41:24;5.53;;;4.55;;
65328;SDS011;51941;52.210;5.158;2023-04-01T13:44:06;7.07;;;5.05;;
65328;SDS011;51941;52.210;5.158;2023-04-01T13:49:39;6.90;;;6.07;;
65328;SDS011;51941;52.210;5.158;2023-04-01T13:55:39;7.28;;;5.80;;
65328;SDS011;51941;52.210;5.158;2023-04-01T14:01:12;6.10;;;5.40;;
65328;SDS011;51941;52.210;5.158;2023-04-01T14:03:48;8.32;;;6.18;;
65328;SDS011;51941;52.210;5.158;2023-04-01T14:06:30;6.30;;;5.70;;
65328;SDS011;51941;52.210;5.158;2023-04-01T14:11:59;6.78;;;6.07;;
65328;SDS011;51941;52.210;5.158;2023-04-01T14:14:36;7.30;;;6.03;;
65328;SDS011;51941;52.210;5.158;2023-04-01T14:17:24;9.63;;;6.75;;
65328;SDS011;51941;52.210;5.158;2023-04-01T14:29:02;7.80;;;6.20;;
65328;SDS011;51941;52.210;5.158;2023-04-01T14:31:50;7.72;;;5.88;;
65328;SDS011;51941;52.210;5.158;2023-04-01T14:34:28;6.95;;;5.90;;
65328;SDS011;51941;52.210;5.158;2023-04-01T14:37:10;7.47;;;6.18;;
65328;SDS011;51941;52.210;5.158;2023-04-01T14:39:49;10.40;;;7.65;;
65328;SDS011;51941;52.210;5.158;2023-04-01T14:45:42;7.00;;;6.30;;
65328;SDS011;51941;52.210;5.158;2023-04-01T14:48:23;7.40;;;6.10;;
65328;SDS011;51941;52.210;5.158;2023-04-01T14:50:55;8.52;;;7.07;;
65328;SDS011;51941;52.210;5.158;2023-04-01T14:53:28;13.40;;;9.32;;
65328;SDS011;51941;52.210;5.158;2023-04-01T14:55:58;8.88;;;7.78;;
65328;SDS011;51941;52.210;5.158;2023-04-01T14:58:26;8.38;;;7.18;;
65328;SDS011;51941;52.210;5.158;2023-04-01T15:01:11;8.32;;;7.13;;
65328;SDS011;51941;52.210;5.158;2023-04-01T15:03:52;7.15;;;6.43;;
65328;SDS011;51941;52.210;5.158;2023-04-01T15:06:33;7.32;;;5.55;;
65328;SDS011;51941;52.210;5.158;2023-04-01T15:09:10;7.10;;;5.70;;
65328;SDS011;51941;52.210;5.158;2023-04-01T15:11:51;6.43;;;5.82;;
65328;SDS011;51941;52.210;5.158;2023-04-01T15:17:30;6.95;;;5.97;;
65328;SDS011;51941;52.210;5.158;2023-04-01T15:20:16;6.88;;;6.18;;
65328;SDS011;51941;52.210;5.158;2023-04-01T15:23:07;6.72;;;5.97;;
65328;SDS011;51941;52.210;5.158;2023-04-01T15:25:51;7.72;;;6.35;;
65328;SDS011;51941;52.210;5.158;2023-04-01T15:28:39;6.85;;;6.07;;
65328;SDS011;51941;52.210;5.158;2023-04-01T15:31:19;8.18;;;5.80;;
65328;SDS011;51941;52.210;5.158;2023-04-01T15:33:55;5.75;;;5.10;;
65328;SDS011;51941;52.210;5.158;2023-04-01T15:36:37;7.55;;;4.93;;
65328;SDS011;51941;52.210;5.158;2023-04-01T15:39:13;7.18;;;5.50;;
65328;SDS011;51941;52.210;5.158;2023-04-01T15:41:45;6.95;;;5.88;;
65328;SDS011;51941;52.210;5.158;2023-04-01T15:44:38;6.30;;;5.70;;
65328;SDS011;51941;52.210;5.158;2023-04-01T15:56:22;6.43;;;5.45;;
65328;SDS011;51941;52.210;5.158;2023-04-01T15:59:03;7.15;;;5.53;;
65328;SDS011;51941;52.210;5.158;2023-04-01T16:01:44;7.20;;;5.65;;
65328;SDS011;51941;52.210;5.158;2023-04-01T16:07:18;6.25;;;5.57;;
65328;SDS011;51941;52.210;5.158;2023-04-01T16:10:19;5.38;;;4.82;;
65328;SDS011;51941;52.210;5.158;2023-04-01T16:13:03;6.18;;;5.15;;
65328;SDS011;51941;52.210;5.158;2023-04-01T16:18:33;5.35;;;4.85;;
65328;SDS011;51941;52.210;5.158;2023-04-01T16:21:12;4.30;;;3.90;;
65328;SDS011;51941;52.210;5.158;2023-04-01T16:23:50;4.63;;;3.80;;
65328;SDS011;51941;52.210;5.158;2023-04-01T16:26:24;4.60;;;3.80;;
65328;SDS011;51941;52.210;5.158;2023-04-01T16:28:57;3.40;;;3.10;;
65328;SDS011;51941;52.210;5.158;2023-04-01T16:31:42;4.05;;;3.65;;
65328;SDS011;51941;52.210;5.158;2023-04-01T16:34:16;3.38;;;3.08;;
65328;SDS011;51941;52.210;5.158;2023-04-01T16:36:50;3.10;;;2.38;;
65328;SDS011;51941;52.210;5.158;2023-04-01T16:39:27;2.90;;;2.25;;
65328;SDS011;51941;52.210;5.158;2023-04-01T16:42:14;3.25;;;2.38;;
65328;SDS011;51941;52.210;5.158;2023-04-01T16:44:50;5.35;;;3.08;;
65328;SDS011;51941;52.210;5.158;2023-04-01T16:47:22;4.63;;;3.13;;
65328;SDS011;51941;52.210;5.158;2023-04-01T16:49:58;3.63;;;2.92;;
65328;SDS011;51941;52.210;5.158;2023-04-01T16:52:42;2.97;;;2.70;;
65328;SDS011;51941;52.210;5.158;2023-04-01T16:55:33;3.35;;;2.70;;
65328;SDS011;51941;52.210;5.158;2023-04-01T16:58:13;2.85;;;2.63;;
65328;SDS011;51941;52.210;5.158;2023-04-01T17:00:48;5.53;;;2.90;;
65328;SDS011;51941;52.210;5.158;2023-04-01T17:03:20;4.05;;;3.53;;
65328;SDS011;51941;52.210;5.158;2023-04-01T17:06:07;3.78;;;3.40;;
65328;SDS011;51941;52.210;5.158;2023-04-01T17:08:56;3.20;;;2.90;;
65328;SDS011;51941;52.210;5.158;2023-04-01T17:11:34;3.65;;;3.35;;
65328;SDS011;51941;52.210;5.158;2023-04-01T17:14:13;4.00;;;3.58;;
65328;SDS011;51941;52.210;5.158;2023-04-01T17:16:52;3.33;;;3.03;;
65328;SDS011;51941;52.210;5.158;2023-04-01T17:19:48;6.72;;;6.03;;
65328;SDS011;51941;52.210;5.158;2023-04-01T17:22:31;2.97;;;2.65;;
65328;SDS011;51941;52.210;5.158;2023-04-01T17:25:13;2.78;;;2.58;;
65328;SDS011;51941;52.210;5.158;2023-04-01T17:27:55;2.85;;;2.65;;
65328;SDS011;51941;52.210;5.158;2023-04-01T17:30:33;2.50;;;2.30;;
65328;SDS011;51941;52.210;5.158;2023-04-01T17:33:13;2.97;;;2.70;;
65328;SDS011;51941;52.210;5.158;2023-04-01T17:35:57;4.07;;;2.20;;
65328;SDS011;51941;52.210;5.158;2023-04-01T17:38:34;2.60;;;2.40;;
65328;SDS011;51941;52.210;5.158;2023-04-01T17:41:25;2.67;;;2.47;;
65328;SDS011;51941;52.210;5.158;2023-04-01T17:43:59;2.55;;;2.28;;
65328;SDS011;51941;52.210;5.158;2023-04-01T17:46:40;2.25;;;2.05;;
65328;SDS011;51941;52.210;5.158;2023-04-01T17:49:25;2.33;;;2.13;;
65328;SDS011;51941;52.210;5.158;2023-04-01T17:51:59;2.55;;;2.35;;
65328;SDS011;51941;52.210;5.158;2023-04-01T17:54:31;2.90;;;2.70;;
65328;SDS011;51941;52.210;5.158;2023-04-01T17:59:58;5.32;;;3.55;;
65328;SDS011;51941;52.210;5.158;2023-04-01T18:02:38;4.40;;;3.45;;